Time;durP1;ratioP1;P1;durP2;ratioP2;P2;SDS_P1;SDS_P2;PMS_P1;PMS_P2;Temp;Humidity;BMP_temperature;BMP_pressure;BME280_temperature;BME280_humidity;BME280_pressure;Samples;Min_cycle;Max_cycle;Signal;HPM_P1;HPM_P2
2023/07/18 00:00:25;;;;;;;;;;;;;;;27.73;49.57;100538.53;5461062;32;34485;-72
2023/07/18 00:03:28;;;;;;;;;;;;;;;27.69;49.51;100531.78;5468119;32;34979;-72
2023/07/18 00:06:30;;;;;;;;;;;;;;;27.92;48.64;100529.28;5448890;32;35439;-72
2023/07/18 00:09:32;;;;;;;;;;;;;;;28.30;48.30;100533.13;5448361;32;34282;-72
2023/07/18 00:12:35;;;;;;;;;;;;;;;28.58;47.44;100525.50;5458436;32;35847;-73
2023/07/18 00:15:37;;;;;;;;;;;;;;;27.60;49.28;100532.75;5466792;32;34209;-73
2023/07/18 00:18:39;;;;;;;;;;;;;;;27.49;47.84;100529.34;5463067;32;35414;-73
2023/07/18 00:21:41;;;;;;;;;;;;;;;27.85;48.44;100521.00;5460489;32;35504;-73
2023/07/18 00:24:43;;;;;;;;;;;;;;;27.41;46.51;100532.06;5466628;32;34325;-73
2023/07/18 00:27:46;;;;;;;;;;;;;;;27.74;48.21;100537.53;5446394;32;34358;-72
2023/07/18 00:30:48;;;;;;;;;;;;;;;27.98;46.43;100531.31;5449767;32;34453;-72
2023/07/18 00:33:50;;;;;;;;;;;;;;;28.24;44.64;100531.94;5459795;32;34243;-73
2023/07/18 00:36:55;;;;;;;;;;;;;;;27.56;44.98;100524.13;5464860;32;36197;-73
2023/07/18 00:39:57;;;;;;;;;;;;;;;27.54;44.66;100516.22;5461626;32;34811;-73
2023/07/18 00:42:59;;;;;;;;;;;;;;;27.58;44.63;100514.03;5462310;32;35450;-73
2023/07/18 00:46:01;;;;;;;;;;;;;;;27.72;44.35;100521.50;5466071;32;34070;-73
2023/07/18 00:49:03;;;;;;;;;;;;;;;27.99;44.31;100523.03;5447749;32;34443;-72
2023/07/18 00:52:06;;;;;;;;;;;;;;;27.69;46.82;100523.69;5449397;32;35737;-73
2023/07/18 00:55:08;;;;;;;;;;;;;;;27.85;47.08;100521.00;5462171;32;34990;-72
2023/07/18 00:58:10;;;;;;;;;;;;;;;27.86;47.39;100511.87;5463983;32;34392;-72
2023/07/18 01:01:12;;;;;;;;;;;;;;;27.66;47.88;100510.50;5447620;32;34402;-72
2023/07/18 01:04:14;;;;;;;;;;;;;;;27.87;47.22;100513.56;5445203;32;34360;-72
2023/07/18 01:07:18;;;;;;;;;;;;;;;27.99;46.77;100519.47;5464926;32;34328;-73
2023/07/18 01:10:24;;;;;;;;;;;;;;;28.03;46.70;100516.28;5461658;32;35837;-73
2023/07/18 01:13:27;;;;;;;;;;;;;;;27.72;47.55;100512.56;5449579;32;34267;-74
2023/07/18 01:16:29;;;;;;;;;;;;;;;27.38;47.90;100509.97;5460372;32;34307;-73
2023/07/18 01:19:31;;;;;;;;;;;;;;;28.11;46.72;100518.13;5433335;32;34800;-73
2023/07/18 01:22:33;;;;;;;;;;;;;;;28.24;45.66;100514.91;5463309;32;35223;-73
2023/07/18 01:25:37;;;;;;;;;;;;;;;28.27;43.68;100522.66;5460896;32;34388;-72
2023/07/18 01:28:39;;;;;;;;;;;;;;;28.23;43.82;100518.63;5465139;32;34328;-73
2023/07/18 01:31:41;;;;;;;;;;;;;;;28.10;43.72;100513.75;5458676;32;34173;-72
2023/07/18 01:34:43;;;;;;;;;;;;;;;28.06;43.85;100517.78;5463291;32;34448;-73
2023/07/18 01:37:46;;;;;;;;;;;;;;;28.13;43.58;100512.53;5461151;32;34368;-72
2023/07/18 01:40:48;;;;;;;;;;;;;;;28.23;43.57;100502.41;5451377;32;35152;-73
2023/07/18 01:43:50;;;;;;;;;;;;;;;28.31;43.43;100505.13;5464100;32;35633;-72
2023/07/18 01:46:52;;;;;;;;;;;;;;;27.93;44.42;100503.94;5452029;32;34223;-72
2023/07/18 01:49:54;;;;;;;;;;;;;;;28.06;44.16;100512.38;5467413;32;34529;-73
2023/07/18 01:52:56;;;;;;;;;;;;;;;28.79;42.82;100503.31;5462987;32;34341;-72
2023/07/18 01:55:58;;;;;;;;;;;;;;;28.64;43.12;100503.16;5451697;32;35568;-72
2023/07/18 01:59:00;;;;;;;;;;;;;;;28.17;44.32;100495.81;5448375;32;35675;-72
2023/07/18 02:02:06;;;;;;;;;;;;;;;28.37;44.19;100493.63;5465611;32;35025;-71
2023/07/18 02:05:08;;;;;;;;;;;;;;;27.90;45.55;100507.00;5471110;32;34257;-73
2023/07/18 02:08:10;;;;;;;;;;;;;;;27.55;46.47;100508.97;5463828;32;35775;-73
2023/07/18 02:11:12;;;;;;;;;;;;;;;27.27;47.35;100511.94;5452146;32;35063;-71
2023/07/18 02:14:19;;;;;;;;;;;;;;;27.58;46.42;100511.34;5463329;32;34337;-71
2023/07/18 02:17:21;;;;;;;;;;;;;;;27.77;46.15;100535.34;5465893;32;34668;-73
2023/07/18 02:20:23;;;;;;;;;;;;;;;27.09;48.06;100542.75;5459003;32;34051;-72
2023/07/18 02:23:25;;;;;;;;;;;;;;;27.28;47.67;100545.16;5463211;32;35066;-73
2023/07/18 02:26:27;;;;;;;;;;;;;;;27.36;47.53;100541.66;5451107;32;35445;-72
2023/07/18 02:29:29;;;;;;;;;;;;;;;27.50;47.25;100541.00;5447400;32;35019;-73
2023/07/18 02:32:31;;;;;;;;;;;;;;;27.12;48.42;100548.69;5454428;32;34240;-73
2023/07/18 02:35:33;;;;;;;;;;;;;;;27.36;48.23;100553.28;5464807;32;35399;-73
2023/07/18 02:38:34;;;;;;;;;;;;;;;27.46;47.96;100556.69;5467603;32;34369;-73
2023/07/18 02:41:37;;;;;;;;;;;;;;;27.42;48.17;100560.72;5462037;32;36018;-73
2023/07/18 02:44:39;;;;;;;;;;;;;;;27.66;47.37;100554.53;5461880;32;34254;-73
2023/07/18 02:47:41;;;;;;;;;;;;;;;27.40;48.13;100565.44;5467905;32;34308;-73
2023/07/18 02:50:45;;;;;;;;;;;;;;;28.05;46.30;100570.97;5463319;32;34157;-73
2023/07/18 02:53:49;;;;;;;;;;;;;;;27.21;48.46;100571.97;5466957;32;34352;-73
2023/07/18 02:56:51;;;;;;;;;;;;;;;27.25;48.27;100575.19;5464938;32;34261;-72
2023/07/18 02:59:53;;;;;;;;;;;;;;;26.85;49.27;100579.34;5466509;32;34383;-72
2023/07/18 03:02:55;;;;;;;;;;;;;;;27.33;48.35;100579.78;5462582;32;35205;-72
2023/07/18 03:05:57;;;;;;;;;;;;;;;27.25;48.12;100584.12;5447989;32;34048;-71
2023/07/18 03:08:59;;;;;;;;;;;;;;;27.11;48.48;100591.97;5452654;32;34413;-72
2023/07/18 03:12:01;;;;;;;;;;;;;;;27.58;46.73;100589.63;5453094;32;34912;-72
2023/07/18 03:15:04;;;;;;;;;;;;;;;26.98;47.81;100587.00;5452316;32;34800;-72
2023/07/18 03:18:06;;;;;;;;;;;;;;;27.33;46.91;100585.16;5470770;32;34366;-72
2023/07/18 03:21:09;;;;;;;;;;;;;;;27.05;47.57;100584.50;5466280;32;35415;-72
2023/07/18 03:24:11;;;;;;;;;;;;;;;27.46;46.65;100593.66;5463016;32;35441;-72
2023/07/18 03:27:13;;;;;;;;;;;;;;;26.81;48.16;100588.78;5447634;32;35284;-73
2023/07/18 03:30:16;;;;;;;;;;;;;;;28.06;45.21;100578.06;5463252;32;34110;-73
2023/07/18 03:33:18;;;;;;;;;;;;;;;27.12;47.18;100589.16;5448103;32;34160;-73
2023/07/18 03:36:20;;;;;;;;;;;;;;;27.23;46.85;100579.87;5465431;32;35643;-72
2023/07/18 03:39:22;;;;;;;;;;;;;;;28.22;44.59;100565.59;5462727;32;34261;-72
2023/07/18 03:42:24;;;;;;;;;;;;;;;27.67;45.49;100576.97;5451286;32;34871;-73
2023/07/18 03:45:26;;;;;;;;;;;;;;;27.78;45.05;100574.00;5465005;32;34790;-73
2023/07/18 03:48:28;;;;;;;;;;;;;;;27.33;46.14;100575.22;5463287;32;35511;-74
2023/07/18 03:51:30;;;;;;;;;;;;;;;27.10;46.23;100579.50;5465016;32;34388;-73
2023/07/18 03:54:38;;;;;;;;;;;;;;;27.39;46.02;100579.13;5461568;32;34794;-73
2023/07/18 03:57:41;;;;;;;;;;;;;;;26.83;47.28;100588.63;5466783;32;34361;-72
2023/07/18 04:00:43;;;;;;;;;;;;;;;27.73;44.97;100587.16;5462281;32;34304;-74
2023/07/18 04:03:45;;;;;;;;;;;;;;;28.02;43.74;100594.78;5463086;32;34203;-73
2023/07/18 04:06:47;;;;;;;;;;;;;;;27.19;45.33;100597.44;5462860;32;34949;-73
2023/07/18 04:09:49;;;;;;;;;;;;;;;27.82;43.60;100590.69;5446793;32;34779;-73
2023/07/18 04:12:51;;;;;;;;;;;;;;;27.50;44.56;100592.28;5466979;32;35719;-73
2023/07/18 04:15:54;;;;;;;;;;;;;;;27.83;43.81;100587.84;5447100;32;36223;-72
2023/07/18 04:18:56;;;;;;;;;;;;;;;27.94;43.46;100592.06;5455920;32;35533;-73
2023/07/18 04:21:58;;;;;;;;;;;;;;;27.70;43.87;100598.31;5445809;32;34431;-73
2023/07/18 04:25:00;;;;;;;;;;;;;;;27.94;43.68;100594.75;5463559;32;35276;-73
2023/07/18 04:28:02;;;;;;;;;;;;;;;27.92;43.67;100599.50;5463905;32;34247;-72
2023/07/18 04:31:05;;;;;;;;;;;;;;;28.77;42.10;100591.88;5458820;32;34362;-72
2023/07/18 04:34:07;;;;;;;;;;;;;;;28.29;42.80;100599.84;5465119;32;34296;-72
2023/07/18 04:37:09;;;;;;;;;;;;;;;28.34;43.18;100599.37;5447200;32;34152;-72
2023/07/18 04:40:11;;;;;;;;;;;;;;;28.38;42.98;100605.28;5450856;32;34724;-72
2023/07/18 04:43:13;;;;;;;;;;;;;;;29.04;41.78;100598.75;5462061;32;34748;-73
2023/07/18 04:46:16;;;;;;;;;;;;;;;28.98;42.20;100597.59;5462021;32;35689;-73
2023/07/18 04:49:18;;;;;;;;;;;;;;;28.98;41.76;100603.00;5464274;32;34260;-73
2023/07/18 04:52:20;;;;;;;;;;;;;;;28.91;42.91;100601.97;5462287;32;35474;-73
2023/07/18 04:55:22;;;;;;;;;;;;;;;29.35;41.60;100612.31;5469979;32;34459;-72
2023/07/18 04:58:25;;;;;;;;;;;;;;;29.50;41.36;100604.28;5447707;32;34240;-73
2023/07/18 05:01:28;;;;;;;;;;;;;;;29.82;40.65;100614.97;5465289;32;34227;-74
2023/07/18 05:04:30;;;;;;;;;;;;;;;29.00;41.80;100613.66;5446994;32;34253;-73
2023/07/18 05:07:32;;;;;;;;;;;;;;;29.29;41.53;100616.56;5462550;32;34090;-72
2023/07/18 05:10:35;;;;;;;;;;;;;;;30.23;39.76;100616.56;5464154;32;34284;-71
2023/07/18 05:13:37;;;;;;;;;;;;;;;30.95;38.41;100628.59;5460773;32;34184;-74
2023/07/18 05:16:39;;;;;;;;;;;;;;;30.68;38.31;100626.50;5465241;32;35792;-73
2023/07/18 05:19:40;;;;;;;;;;;;;;;31.34;36.99;100635.62;5446333;32;35472;-73
2023/07/18 05:22:43;;;;;;;;;;;;;;;31.54;36.33;100635.88;5464283;32;35478;-73
2023/07/18 05:25:45;;;;;;;;;;;;;;;31.63;35.86;100639.34;5447544;32;35393;-73
2023/07/18 05:28:48;;;;;;;;;;;;;;;31.24;36.37;100638.66;5463842;32;33602;-73
2023/07/18 05:31:50;;;;;;;;;;;;;;;31.72;35.45;100649.03;5459990;32;34257;-75
2023/07/18 05:34:52;;;;;;;;;;;;;;;32.41;33.84;100643.13;5459387;32;34310;-67
2023/07/18 05:37:54;;;;;;;;;;;;;;;31.64;35.37;100644.56;5467241;32;35709;-71
2023/07/18 05:40:56;;;;;;;;;;;;;;;32.50;33.90;100644.66;5463405;32;34323;-79
2023/07/18 05:43:58;;;;;;;;;;;;;;;33.02;33.17;100637.91;5475883;32;35609;-69
2023/07/18 05:47:00;;;;;;;;;;;;;;;32.87;33.05;100644.34;5460584;32;34366;-69
2023/07/18 05:50:02;;;;;;;;;;;;;;;33.79;31.85;100648.56;5456020;32;35980;-67
2023/07/18 05:53:04;;;;;;;;;;;;;;;32.55;33.28;100643.03;5457167;32;34332;-71
2023/07/18 05:56:07;;;;;;;;;;;;;;;32.15;34.14;100655.41;5458144;32;34268;-77
2023/07/18 05:59:09;;;;;;;;;;;;;;;32.32;33.80;100645.91;5460167;32;34661;-74
2023/07/18 06:02:11;;;;;;;;;;;;;;;33.71;31.59;100642.47;5442568;32;35303;-71
2023/07/18 06:05:14;;;;;;;;;;;;;;;32.47;33.46;100645.88;5464276;32;34171;-70
2023/07/18 06:08:16;;;;;;;;;;;;;;;33.52;32.06;100644.06;5458101;32;35583;-76
2023/07/18 06:11:18;;;;;;;;;;;;;;;32.96;33.67;100663.22;5462524;32;34509;-71
2023/07/18 06:14:21;;;;;;;;;;;;;;;32.94;32.83;100668.03;5470612;32;34128;-70
2023/07/18 06:17:23;;;;;;;;;;;;;;;31.78;34.51;100664.59;5454645;32;35856;-68
2023/07/18 06:20:25;;;;;;;;;;;;;;;32.66;33.10;100668.84;5459730;32;34337;-75
2023/07/18 06:23:27;;;;;;;;;;;;;;;32.94;31.96;100663.44;5459193;32;35391;-78
2023/07/18 06:26:29;;;;;;;;;;;;;;;33.34;31.94;100675.38;5456598;32;34321;-70
2023/07/18 06:29:31;;;;;;;;;;;;;;;34.25;29.75;100666.09;5442338;32;34280;-72
2023/07/18 06:32:33;;;;;;;;;;;;;;;34.08;29.60;100671.94;5448134;32;34316;-70
2023/07/18 06:35:35;;;;;;;;;;;;;;;34.44;28.96;100657.94;5464271;32;35510;-70
2023/07/18 06:38:37;;;;;;;;;;;;;;;33.31;29.87;100664.91;5465073;32;36054;-77
2023/07/18 06:41:39;;;;;;;;;;;;;;;34.62;28.68;100659.22;5467380;32;36626;-74
2023/07/18 06:44:41;;;;;;;;;;;;;;;34.21;28.85;100661.06;5450721;32;35280;-73
2023/07/18 06:47:43;;;;;;;;;;;;;;;35.68;27.04;100654.37;5461646;32;35528;-73
2023/07/18 06:50:51;;;;;;;;;;;;;;;34.84;28.53;100663.38;5460403;32;34276;-74
2023/07/18 06:53:53;;;;;;;;;;;;;;;35.24;28.35;100671.53;5461018;32;34272;-75
2023/07/18 06:56:55;;;;;;;;;;;;;;;34.36;29.31;100679.94;5465817;32;34125;-76
2023/07/18 06:59:57;;;;;;;;;;;;;;;34.05;30.31;100676.97;5456575;32;35575;-74
2023/07/18 07:02:59;;;;;;;;;;;;;;;35.21;27.59;100666.47;5464481;32;35622;-76
2023/07/18 07:06:01;;;;;;;;;;;;;;;35.81;26.98;100678.91;5462402;32;34529;-70
2023/07/18 07:09:03;;;;;;;;;;;;;;;36.44;25.94;100683.56;5466200;32;34182;-76
2023/07/18 07:12:05;;;;;;;;;;;;;;;35.61;27.21;100682.75;5460121;32;34266;-76
2023/07/18 07:15:07;;;;;;;;;;;;;;;35.30;27.87;100694.44;5463163;32;35361;-75
2023/07/18 07:18:10;;;;;;;;;;;;;;;35.76;27.36;100699.75;5458370;32;35837;-78
2023/07/18 07:21:12;;;;;;;;;;;;;;;36.58;26.50;100711.69;5462961;32;34253;-71
2023/07/18 07:24:16;;;;;;;;;;;;;;;37.03;26.23;100700.56;5462951;32;35240;-72
2023/07/18 07:27:19;;;;;;;;;;;;;;;36.12;26.25;100707.34;5451252;32;34240;-75
2023/07/18 07:30:21;;;;;;;;;;;;;;;35.68;26.36;100706.31;5463979;32;34047;-76
2023/07/18 07:33:23;;;;;;;;;;;;;;;34.70;27.37;100702.66;5452267;32;34430;-74
2023/07/18 07:36:28;;;;;;;;;;;;;;;35.60;26.15;100703.78;5440795;32;35697;-75
2023/07/18 07:39:30;;;;;;;;;;;;;;;36.44;25.20;100701.91;5448194;32;34371;-81
2023/07/18 07:42:32;;;;;;;;;;;;;;;37.02;24.34;100696.16;5462236;32;35730;-71
2023/07/18 07:45:34;;;;;;;;;;;;;;;38.09;23.13;100691.09;5460686;32;34296;-74
2023/07/18 07:48:36;;;;;;;;;;;;;;;37.92;23.07;100697.22;5458846;32;34371;-74
2023/07/18 07:51:38;;;;;;;;;;;;;;;37.72;23.76;100698.53;5457850;32;34191;-75
2023/07/18 07:54:40;;;;;;;;;;;;;;;35.93;26.22;100708.31;5458995;32;35136;-71
2023/07/18 07:57:43;;;;;;;;;;;;;;;36.63;25.40;100706.38;5454077;32;34245;-77
2023/07/18 08:00:45;;;;;;;;;;;;;;;38.46;22.47;100706.38;5433454;32;35028;-76
2023/07/18 08:03:47;;;;;;;;;;;;;;;38.30;21.83;100701.56;5457259;32;34129;-75
2023/07/18 08:06:52;;;;;;;;;;;;;;;37.78;21.45;100697.63;5441029;32;35405;-85
2023/07/18 08:09:55;;;;;;;;;;;;;;;38.30;19.79;100703.47;5438404;32;34507;-74
2023/07/18 08:12:57;;;;;;;;;;;;;;;37.68;20.78;100701.75;5458933;32;35312;-74
2023/07/18 08:15:59;;;;;;;;;;;;;;;37.41;21.38;100700.38;5464726;32;34459;-73
2023/07/18 08:19:01;;;;;;;;;;;;;;;37.96;19.64;100705.84;5462992;32;34372;-72
2023/07/18 08:22:03;;;;;;;;;;;;;;;38.91;19.56;100705.03;5446565;32;34280;-72
2023/07/18 08:25:05;;;;;;;;;;;;;;;38.64;19.93;100704.59;5460939;32;34789;-72
2023/07/18 08:28:07;;;;;;;;;;;;;;;37.84;20.75;100703.03;5461638;32;36318;-76
2023/07/18 08:31:09;;;;;;;;;;;;;;;37.08;21.09;100715.25;5452703;32;36396;-73
2023/07/18 08:34:11;;;;;;;;;;;;;;;36.55;22.13;100712.13;5449235;32;34308;-73
2023/07/18 08:37:13;;;;;;;;;;;;;;;36.74;22.37;100710.31;5463323;32;34892;-76
2023/07/18 08:40:15;;;;;;;;;;;;;;;35.67;24.03;100711.97;5449540;32;35570;-70
2023/07/18 08:43:18;;;;;;;;;;;;;;;35.24;24.42;100704.31;5453497;32;36744;-74
2023/07/18 08:46:20;;;;;;;;;;;;;;;34.72;25.09;100714.22;5432742;32;35139;-68
2023/07/18 08:49:23;;;;;;;;;;;;;;;37.36;21.31;100705.75;5445655;32;34286;-79
2023/07/18 08:52:26;;;;;;;;;;;;;;;36.30;22.76;100706.59;5422610;32;34974;-71
2023/07/18 08:55:34;;;;;;;;;;;;;;;35.79;22.89;100702.03;5456734;32;34131;-71
2023/07/18 08:58:39;;;;;;;;;;;;;;;35.69;22.51;100702.50;5460427;32;35609;-78
2023/07/18 09:01:45;;;;;;;;;;;;;;;35.08;23.54;100711.06;5460346;32;34214;-73
2023/07/18 09:04:47;;;;;;;;;;;;;;;35.89;21.80;100717.97;5459497;32;36173;-74
2023/07/18 09:07:49;;;;;;;;;;;;;;;35.44;22.92;100701.56;5455315;32;34417;-74
2023/07/18 09:11:01;;;;;;;;;;;;;;;36.56;22.39;100700.12;5450660;32;35461;-71
2023/07/18 09:14:03;;;;;;;;;;;;;;;35.62;23.50;100704.44;5459891;32;33951;-71
2023/07/18 09:17:06;;;;;;;;;;;;;;;35.34;23.80;100698.37;5440621;32;35436;-72
2023/07/18 09:20:09;;;;;;;;;;;;;;;37.82;20.84;100696.12;5457098;32;34473;-70
2023/07/18 09:23:11;;;;;;;;;;;;;;;36.74;21.28;100697.44;5447122;32;34340;-82
2023/07/18 09:26:15;;;;;;;;;;;;;;;36.72;21.37;100696.84;5435148;32;34627;-88
2023/07/18 09:29:17;;;;;;;;;;;;;;;35.35;22.34;100695.44;5437127;32;32958;-83
2023/07/18 09:32:20;;;;;;;;;;;;;;;36.60;20.81;100694.00;5459711;32;35438;-86
2023/07/18 09:35:22;;;;;;;;;;;;;;;37.45;19.94;100685.16;5459692;32;34069;-80
2023/07/18 09:38:25;;;;;;;;;;;;;;;37.03;19.99;100693.19;5450431;32;36370;-75
2023/07/18 09:41:27;;;;;;;;;;;;;;;36.20;20.78;100690.69;5456768;32;34346;-80
2023/07/18 09:44:29;;;;;;;;;;;;;;;35.19;21.57;100680.38;5445227;32;35782;-76
2023/07/18 09:47:34;;;;;;;;;;;;;;;35.05;22.02;100688.81;5451648;32;34055;-70
2023/07/18 09:50:38;;;;;;;;;;;;;;;35.25;22.12;100676.78;5456945;32;35344;-69
2023/07/18 09:53:44;;;;;;;;;;;;;;;36.35;20.81;100671.22;5434727;32;35532;-83
2023/07/18 09:56:48;;;;;;;;;;;;;;;37.05;20.24;100660.94;5398742;32;34287;-75
2023/07/18 09:59:50;;;;;;;;;;;;;;;35.20;21.95;100660.19;5401861;32;34241;-75
2023/07/18 10:02:52;;;;;;;;;;;;;;;35.56;21.81;100660.72;5399357;32;34221;-80
2023/07/18 10:05:55;;;;;;;;;;;;;;;35.36;21.86;100660.75;5431574;32;35288;-75
2023/07/18 10:08:57;;;;;;;;;;;;;;;35.89;21.19;100655.09;5469658;32;36188;-72
2023/07/18 10:11:59;;;;;;;;;;;;;;;36.68;20.38;100657.28;5454842;32;35259;-77
2023/07/18 10:15:03;;;;;;;;;;;;;;;35.14;21.48;100649.28;5463720;32;34966;-76
2023/07/18 10:18:25;;;;;;;;;;;;;;;35.22;20.03;100647.13;5469964;32;36712;-82
2023/07/18 10:21:32;;;;;;;;;;;;;;;34.43;20.13;100649.97;5461174;32;36097;-84
2023/07/18 10:24:34;;;;;;;;;;;;;;;34.95;19.63;100654.56;5464177;32;34069;-77
2023/07/18 10:27:37;;;;;;;;;;;;;;;33.46;21.04;100647.59;5461723;32;33174;-83
2023/07/18 10:30:41;;;;;;;;;;;;;;;34.85;19.75;100645.97;5459038;32;34978;-74
2023/07/18 10:34:03;;;;;;;;;;;;;;;33.60;21.38;100642.00;5462992;32;36311;-78
2023/07/18 10:37:07;;;;;;;;;;;;;;;35.07;20.23;100643.00;5463918;32;35522;-74
2023/07/18 10:40:10;;;;;;;;;;;;;;;33.35;22.40;100636.19;5464410;32;34372;-73
2023/07/18 10:43:16;;;;;;;;;;;;;;;34.85;20.77;100629.59;5459021;32;34951;-71
2023/07/18 10:46:19;;;;;;;;;;;;;;;35.52;19.76;100624.78;5445875;32;34257;-74
2023/07/18 10:49:29;;;;;;;;;;;;;;;35.25;20.35;100630.34;5463658;32;34399;-70
2023/07/18 10:52:34;;;;;;;;;;;;;;;36.97;18.24;100611.06;5463783;32;33241;-73
2023/07/18 10:55:38;;;;;;;;;;;;;;;36.34;18.93;100601.12;5459298;32;34105;-82
2023/07/18 10:58:40;;;;;;;;;;;;;;;36.22;18.52;100594.69;5443872;32;34803;-72
2023/07/18 11:01:42;;;;;;;;;;;;;;;37.88;17.49;100588.22;5456269;32;36331;-76
2023/07/18 11:04:44;;;;;;;;;;;;;;;38.05;17.26;100589.19;5464632;32;34331;-78
2023/07/18 11:07:47;;;;;;;;;;;;;;;37.99;17.08;100581.91;5451767;32;34804;-78
2023/07/18 11:10:52;;;;;;;;;;;;;;;38.70;16.52;100583.63;5460871;32;34788;-79
2023/07/18 11:13:55;;;;;;;;;;;;;;;36.37;18.44;100584.25;5464225;32;34395;-75
2023/07/18 11:16:56;;;;;;;;;;;;;;;38.05;17.13;100569.97;5468142;32;34978;-81
2023/07/18 11:19:59;;;;;;;;;;;;;;;37.82;17.28;100578.19;5450469;32;35289;-69
2023/07/18 11:23:01;;;;;;;;;;;;;;;37.99;17.23;100565.44;5454802;32;34227;-73
2023/07/18 11:26:12;;;;;;;;;;;;;;;37.66;17.80;100565.94;5462343;32;35377;-69
2023/07/18 11:29:14;;;;;;;;;;;;;;;37.82;17.72;100567.22;5470202;32;34250;-75
2023/07/18 11:32:29;;;;;;;;;;;;;;;38.39;16.98;100570.31;5457706;32;34939;-79
2023/07/18 11:35:34;;;;;;;;;;;;;;;37.28;18.02;100571.69;5437185;32;34267;-75
2023/07/18 11:38:37;;;;;;;;;;;;;;;37.18;18.45;100563.22;5468192;32;34730;-79
2023/07/18 11:41:40;;;;;;;;;;;;;;;38.21;17.42;100558.31;5432392;32;35662;-73
2023/07/18 11:44:42;;;;;;;;;;;;;;;39.79;16.00;100553.44;5444661;32;34802;-80
2023/07/18 11:47:47;;;;;;;;;;;;;;;39.33;16.54;100534.44;5462512;32;33560;-79
2023/07/18 11:50:50;;;;;;;;;;;;;;;37.63;18.04;100541.72;5456323;32;34354;-72
2023/07/18 11:53:52;;;;;;;;;;;;;;;40.56;15.59;100535.44;5451275;32;35467;-73
2023/07/18 11:56:54;;;;;;;;;;;;;;;40.27;15.81;100532.81;5455428;32;34432;-81
2023/07/18 11:59:56;;;;;;;;;;;;;;;41.22;14.50;100529.94;5441691;32;34065;-76
2023/07/18 12:02:58;;;;;;;;;;;;;;;39.03;16.69;100529.97;5465217;32;34184;-75
2023/07/18 12:06:00;;;;;;;;;;;;;;;37.66;17.85;100539.34;5441946;32;34219;-76
2023/07/18 12:09:04;;;;;;;;;;;;;;;38.61;17.31;100524.66;5457044;32;34472;-76
2023/07/18 12:12:08;;;;;;;;;;;;;;;41.47;15.13;100521.97;5463391;32;35332;-73
2023/07/18 12:15:12;;;;;;;;;;;;;;;37.83;17.55;100519.50;5461043;32;34258;-85
2023/07/18 12:18:15;;;;;;;;;;;;;;;37.28;18.10;100512.25;5440045;32;34792;-71
2023/07/18 12:21:16;;;;;;;;;;;;;;;36.17;19.36;100509.72;5466894;32;35438;-74
2023/07/18 12:24:19;;;;;;;;;;;;;;;36.07;20.01;100504.78;5463500;32;34249;-78
2023/07/18 12:27:21;;;;;;;;;;;;;;;36.27;19.60;100502.69;5462770;32;34148;-78
2023/07/18 12:30:23;;;;;;;;;;;;;;;36.49;19.57;100494.06;5456184;32;34590;-78
2023/07/18 12:33:25;;;;;;;;;;;;;;;35.40;20.89;100504.34;5455837;32;35061;-75
2023/07/18 12:36:27;;;;;;;;;;;;;;;34.60;21.68;100505.75;5468624;32;34295;-77
2023/07/18 12:39:29;;;;;;;;;;;;;;;36.24;20.10;100507.75;5460743;32;34450;-72
2023/07/18 12:42:31;;;;;;;;;;;;;;;34.87;21.22;100501.87;5452776;32;36463;-83
2023/07/18 12:45:33;;;;;;;;;;;;;;;34.38;22.03;100503.25;5464415;32;35471;-72
2023/07/18 12:48:35;;;;;;;;;;;;;;;34.72;21.55;100496.69;5450819;32;34326;-72
2023/07/18 12:51:37;;;;;;;;;;;;;;;34.73;21.87;100501.09;5463588;32;34270;-74
2023/07/18 12:54:40;;;;;;;;;;;;;;;34.10;22.15;100491.75;5457138;32;34317;-68
2023/07/18 12:57:42;;;;;;;;;;;;;;;34.29;22.23;100485.44;5458410;32;35000;-71
2023/07/18 13:00:44;;;;;;;;;;;;;;;34.95;21.65;100478.97;5461141;32;34799;-72
2023/07/18 13:03:46;;;;;;;;;;;;;;;34.96;21.68;100470.56;5455032;32;34946;-81
2023/07/18 13:06:48;;;;;;;;;;;;;;;34.83;21.83;100473.31;5449216;32;35087;-82
2023/07/18 13:09:52;;;;;;;;;;;;;;;34.86;21.54;100466.59;5447321;32;34316;-82
2023/07/18 13:12:54;;;;;;;;;;;;;;;34.46;22.06;100466.75;5453512;32;34415;-81
2023/07/18 13:15:57;;;;;;;;;;;;;;;34.26;22.16;100464.00;5448322;32;34624;-81
2023/07/18 13:19:00;;;;;;;;;;;;;;;34.10;22.68;100457.13;5434870;32;37203;-73
2023/07/18 13:22:03;;;;;;;;;;;;;;;34.68;22.04;100459.12;5462075;32;34180;-77
2023/07/18 13:25:05;;;;;;;;;;;;;;;33.83;22.94;100452.72;5421601;32;33842;-74
2023/07/18 13:28:08;;;;;;;;;;;;;;;33.69;23.27;100449.19;5439112;32;35438;-73
2023/07/18 13:31:11;;;;;;;;;;;;;;;33.50;23.41;100448.13;5436432;32;33449;-73
2023/07/18 13:34:13;;;;;;;;;;;;;;;34.16;22.92;100442.66;5421902;32;35255;-77
2023/07/18 13:37:15;;;;;;;;;;;;;;;34.86;22.32;100442.03;5447461;32;35272;-75
2023/07/18 13:40:17;;;;;;;;;;;;;;;34.12;23.00;100440.56;5451567;32;35431;-78
2023/07/18 13:43:19;;;;;;;;;;;;;;;34.38;22.84;100442.38;5448142;32;34983;-72
2023/07/18 13:46:21;;;;;;;;;;;;;;;34.65;22.69;100435.81;5453618;32;35085;-74
2023/07/18 13:49:26;;;;;;;;;;;;;;;34.20;23.24;100452.09;5462516;32;34924;-75
2023/07/18 13:52:48;;;;;;;;;;;;;;;34.69;22.78;100441.69;5465802;32;34634;-74
2023/07/18 13:55:50;;;;;;;;;;;;;;;34.37;22.82;100429.78;5435837;32;32916;-76
2023/07/18 13:58:52;;;;;;;;;;;;;;;34.42;22.93;100428.13;5450993;32;35773;-75
2023/07/18 14:01:54;;;;;;;;;;;;;;;34.35;23.13;100427.28;5458415;32;35202;-76
2023/07/18 14:04:57;;;;;;;;;;;;;;;33.65;23.93;100437.00;5451365;32;35521;-81
2023/07/18 14:07:59;;;;;;;;;;;;;;;33.50;24.23;100422.75;5462160;32;34321;-79
2023/07/18 14:11:02;;;;;;;;;;;;;;;33.48;24.22;100422.94;5460208;32;37426;-80
2023/07/18 14:14:04;;;;;;;;;;;;;;;34.17;23.52;100424.41;5460267;32;35359;-74
2023/07/18 14:17:06;;;;;;;;;;;;;;;35.15;22.63;100413.31;5463983;32;34270;-81
2023/07/18 14:20:08;;;;;;;;;;;;;;;34.51;22.91;100414.25;5461772;32;34779;-74
2023/07/18 14:23:11;;;;;;;;;;;;;;;35.18;22.12;100396.50;5457365;32;34879;-75
2023/07/18 14:26:13;;;;;;;;;;;;;;;35.42;22.36;100400.31;5456754;32;34492;-76
2023/07/18 14:29:15;;;;;;;;;;;;;;;35.12;22.67;100386.47;5449912;32;35461;-78
2023/07/18 14:32:18;;;;;;;;;;;;;;;35.00;22.85;100384.41;5458338;32;34326;-75
2023/07/18 14:35:20;;;;;;;;;;;;;;;34.61;23.14;100390.06;5447832;32;35770;-79
2023/07/18 14:38:22;;;;;;;;;;;;;;;35.10;22.46;100385.81;5455942;32;35148;-79
2023/07/18 14:41:24;;;;;;;;;;;;;;;34.39;23.29;100393.09;5459648;32;33686;-75
2023/07/18 14:44:26;;;;;;;;;;;;;;;34.05;23.81;100394.22;5469005;32;35205;-79
2023/07/18 14:47:28;;;;;;;;;;;;;;;33.45;24.29;100381.69;5463042;32;35066;-78
2023/07/18 14:50:31;;;;;;;;;;;;;;;33.57;24.43;100378.12;5464460;32;34757;-75
2023/07/18 14:53:33;;;;;;;;;;;;;;;33.85;24.05;100391.50;5454408;32;34289;-80
2023/07/18 14:56:37;;;;;;;;;;;;;;;33.71;24.09;100380.81;5446316;32;34963;-74
2023/07/18 14:59:39;;;;;;;;;;;;;;;34.40;23.30;100367.47;5464937;32;34843;-75
2023/07/18 15:02:41;;;;;;;;;;;;;;;34.94;22.59;100371.66;5457372;32;35597;-79
2023/07/18 15:05:43;;;;;;;;;;;;;;;34.20;23.44;100372.16;5466671;32;33911;-75
2023/07/18 15:08:47;;;;;;;;;;;;;;;34.64;23.00;100365.91;5450809;32;34630;-74
2023/07/18 15:11:49;;;;;;;;;;;;;;;34.60;23.09;100369.31;5453715;32;35362;-77
2023/07/18 15:14:52;;;;;;;;;;;;;;;34.02;23.83;100363.81;5468829;32;34832;-79
2023/07/18 15:17:54;;;;;;;;;;;;;;;33.63;24.49;100366.37;5442388;32;34257;-73
2023/07/18 15:20:58;;;;;;;;;;;;;;;33.37;24.73;100369.91;5465628;32;34703;-76
2023/07/18 15:24:00;;;;;;;;;;;;;;;34.56;23.35;100371.63;5461016;32;35430;-78
2023/07/18 15:27:02;;;;;;;;;;;;;;;34.94;23.01;100358.00;5439731;32;34897;-77
2023/07/18 15:30:06;;;;;;;;;;;;;;;34.51;23.36;100368.69;5437538;32;35695;-77
2023/07/18 15:33:09;;;;;;;;;;;;;;;33.84;23.97;100356.28;5434085;32;34774;-75
2023/07/18 15:36:27;;;;;;;;;;;;;;;33.46;24.51;100350.66;5469543;32;34885;-74